createdAt,value
2023-03-06T00:00:41.891Z,98283.73
2023-03-06T00:01:46.039Z,98283.23
2023-03-06T00:02:50.153Z,98284.86
2023-03-06T00:03:55.583Z,98286.2
2023-03-06T00:04:59.800Z,98284.98
2023-03-06T00:06:04.110Z,98285.51
2023-03-06T00:07:08.367Z,98256.92
2023-03-06T00:08:12.576Z,98279.87
2023-03-06T00:09:16.685Z,98281.83
2023-03-06T00:10:20.823Z,98282.77
2023-03-06T00:11:24.984Z,98290.06
2023-03-06T00:12:29.274Z,98287.84
2023-03-06T00:13:33.349Z,98292.05
2023-03-06T00:14:37.469Z,98287.88
2023-03-06T00:15:41.572Z,98283.98
2023-03-06T00:16:45.695Z,98292.8
2023-03-06T00:17:49.798Z,98286.22
2023-03-06T00:18:53.944Z,98278.92
2023-03-06T00:19:58.058Z,98290.96
2023-03-06T00:21:02.169Z,98286.34
2023-03-06T00:22:06.286Z,98285.22
2023-03-06T00:23:10.410Z,98290.3
2023-03-06T00:24:14.512Z,98283.72
2023-03-06T00:25:18.599Z,98278.7
2023-03-06T00:26:22.702Z,98278.2
2023-03-06T00:27:26.815Z,98281.2
2023-03-06T00:28:30.952Z,98286.84
2023-03-06T00:29:35.106Z,98281.05
2023-03-06T00:30:39.208Z,98275.95
2023-03-06T00:31:43.435Z,98283.12
2023-03-06T00:32:47.612Z,98286.95
2023-03-06T00:33:51.765Z,98284
2023-03-06T00:34:55.865Z,98282.12
2023-03-06T00:36:00.043Z,98283.59
2023-03-06T00:37:04.125Z,98288.55
2023-03-06T00:38:08.253Z,98286.52
2023-03-06T00:39:12.363Z,98285.67
2023-03-06T00:40:16.464Z,98286.7
2023-03-06T00:41:20.560Z,98279.94
2023-03-06T00:42:24.654Z,98282.43
2023-03-06T00:43:28.766Z,98283.95
2023-03-06T00:44:32.854Z,98285.8
2023-03-06T00:45:37.096Z,98285.8
2023-03-06T00:46:41.309Z,98284.05
2023-03-06T00:47:45.418Z,98279.03
2023-03-06T00:48:49.561Z,98280.49
2023-03-06T00:49:53.649Z,98285.73
2023-03-06T00:50:57.780Z,98273.02
2023-03-06T00:52:01.889Z,98286.35
2023-03-06T00:53:06.028Z,98273.76
2023-03-06T00:54:10.184Z,98282.58
2023-03-06T00:55:14.288Z,98279.98
2023-03-06T00:56:20.832Z,98282.58
2023-03-06T00:57:24.957Z,98272.51
2023-03-06T00:58:29.060Z,98286.69
2023-03-06T00:59:33.198Z,98282.88
2023-03-06T01:00:37.498Z,98280.8
2023-03-06T01:01:41.752Z,98281.05
2023-03-06T01:02:45.858Z,98277.53
2023-03-06T01:03:50.003Z,98276.31
2023-03-06T01:04:54.165Z,98276.66
2023-03-06T03:06:41.322Z,98215.86
2023-03-06T03:07:45.451Z,98223.31
2023-03-06T03:08:49.583Z,98217.01
2023-03-06T03:09:53.685Z,98220.54
2023-03-06T03:10:57.828Z,98221.45
2023-03-06T03:12:01.998Z,98217.43
2023-03-06T03:13:06.130Z,98213.91
2023-03-06T03:14:10.283Z,98217.3
2023-03-06T03:15:14.422Z,98215.78
2023-03-06T03:16:18.838Z,98216.3
2023-03-06T03:17:23.097Z,98213.08
2023-03-06T03:18:27.201Z,98222.05
2023-03-06T03:19:31.312Z,98216.4
2023-03-06T03:20:35.399Z,98226.25
2023-03-06T03:21:39.499Z,98219.58
2023-03-06T03:22:43.637Z,98217.3
2023-03-06T03:23:47.757Z,98220.89
2023-03-06T03:24:52.034Z,98213.29
2023-03-06T03:25:56.417Z,98220.92
2023-03-06T03:27:00.513Z,98216.38
2023-03-06T03:28:04.641Z,98215.34
2023-03-06T03:29:08.723Z,98210.42
2023-03-06T03:30:12.818Z,98218.55
2023-03-06T03:31:17.053Z,98217.22
2023-03-06T03:32:21.427Z,98219.58
2023-03-06T03:33:25.632Z,98212.08
2023-03-06T03:34:29.737Z,98209.48
2023-03-06T03:35:33.925Z,98215.03
2023-03-06T03:36:38.095Z,98208.89
2023-03-06T03:37:42.222Z,98214.1
2023-03-06T03:38:46.376Z,98214.23
2023-03-06T03:39:50.489Z,98203.66
2023-03-06T03:40:54.593Z,98202.73
2023-03-06T03:41:58.708Z,98204.47
2023-03-06T03:43:02.827Z,98204.41
2023-03-06T03:44:06.961Z,98200.05
2023-03-06T03:45:11.089Z,98205.19
2023-03-06T03:46:15.393Z,98196.56
2023-03-06T03:47:19.559Z,98193.42
2023-03-06T03:48:23.683Z,98193.02
2023-03-06T03:49:27.810Z,98190.3
2023-03-06T03:50:31.925Z,98195.31
2023-03-06T03:51:36.045Z,98196.44
2023-03-06T03:52:40.174Z,98192.11
2023-03-06T03:53:44.256Z,98198.59
2023-03-06T03:54:48.443Z,98198.91
2023-03-06T03:55:52.574Z,98201.05
2023-03-06T03:56:56.663Z,98193.05
2023-03-06T03:58:00.746Z,98193.95
2023-03-06T03:59:04.840Z,98197.25
2023-03-06T04:00:08.959Z,98187.63
2023-03-06T04:01:13.069Z,98195.66
2023-03-06T04:02:17.293Z,98195.97
2023-03-06T04:03:21.610Z,98194.63
2023-03-06T04:04:25.733Z,98192.16
2023-03-06T04:05:30.040Z,98200.89
2023-03-06T04:06:34.147Z,98188.75
2023-03-06T04:07:38.256Z,98186.59
2023-03-06T04:08:42.396Z,98185.78
2023-03-06T04:09:46.494Z,98181.77
2023-03-06T04:10:50.616Z,98179.8
2023-03-06T04:11:54.759Z,98180.93
2023-03-06T04:12:58.873Z,98177.66
2023-03-06T04:14:03.061Z,98176.06
2023-03-06T04:15:07.186Z,98183.23
2023-03-06T04:16:11.351Z,98188.03
2023-03-06T04:17:15.475Z,98188
2023-03-06T04:18:19.596Z,98185.23
2023-03-06T04:19:23.711Z,98182.16
2023-03-06T04:20:27.835Z,98179.02
2023-03-06T04:21:31.980Z,98179.02
2023-03-06T04:22:36.133Z,98182.3
2023-03-06T04:23:40.345Z,98174.07
2023-03-06T04:24:44.561Z,98177.91
2023-03-06T04:25:48.736Z,98177.44
2023-03-06T04:26:52.848Z,98171.83
2023-03-06T04:27:56.942Z,98178.91
2023-03-06T04:29:01.080Z,98178.34
2023-03-06T04:30:05.218Z,98167.91
2023-03-06T04:31:09.382Z,98177.47
2023-03-06T04:32:13.598Z,98179.49
2023-03-06T04:33:17.705Z,98180.61
2023-03-06T04:34:21.891Z,98181.95
2023-03-06T04:35:26.111Z,98185.57
2023-03-06T04:36:30.292Z,98182.98
2023-03-06T04:37:34.612Z,98186.29
2023-03-06T04:38:38.908Z,98184.14
2023-03-06T04:39:43.096Z,98176.44
2023-03-06T04:40:47.287Z,98187.19
2023-03-06T04:41:51.848Z,98173.73
2023-03-06T04:42:56.215Z,98174.66
2023-03-06T04:44:00.322Z,98177.63
2023-03-06T04:45:04.424Z,98173.55
2023-03-06T04:46:08.693Z,98177.81
2023-03-06T04:47:12.832Z,98178.8
2023-03-06T04:48:16.970Z,98170.17
2023-03-06T04:49:21.125Z,98175.28
2023-03-06T04:50:25.395Z,98174.34
2023-03-06T04:51:29.549Z,98177.52
2023-03-06T04:52:33.657Z,98174
2023-03-06T04:53:37.787Z,98171.63
2023-03-06T04:54:41.900Z,98168.64
2023-03-06T04:55:46.024Z,98176.83
2023-03-06T04:56:50.161Z,98173.63
2023-03-06T04:57:54.268Z,98171.78
2023-03-06T04:58:58.378Z,98171.25
2023-03-06T05:00:02.599Z,98165.48
2023-03-06T05:01:06.968Z,98162.06
2023-03-06T05:02:11.247Z,98168.63
2023-03-06T05:03:15.415Z,98172.21
2023-03-06T05:04:19.567Z,98167.03
2023-03-06T05:05:23.679Z,98172.39
2023-03-06T05:06:27.800Z,98174.61
2023-03-06T05:07:31.924Z,98169.67
2023-03-06T05:08:36.108Z,98173.17
2023-03-06T05:09:40.236Z,98169.39
2023-03-06T05:10:44.349Z,98172.78
2023-03-06T05:11:48.450Z,98168.23
2023-03-06T05:12:52.641Z,98165.55
2023-03-06T05:13:56.785Z,98162.34
2023-03-06T05:15:00.936Z,98164.39
2023-03-06T05:16:05.265Z,98164.39
2023-03-06T05:17:09.543Z,98163.05
2023-03-06T05:18:13.691Z,98169.67
2023-03-06T05:19:17.788Z,98170.55
2023-03-06T05:20:21.888Z,98174.34
2023-03-06T05:21:26.019Z,98173.53
2023-03-06T05:22:30.174Z,98166.2
2023-03-06T05:23:34.288Z,98169.02
2023-03-06T05:24:38.394Z,98174.43
2023-03-06T05:25:42.511Z,98169.16
2023-03-06T05:26:46.618Z,98169.56
2023-03-06T05:27:50.763Z,98171.53
2023-03-06T05:28:54.882Z,98169.98
2023-03-06T05:29:58.994Z,98175.7
2023-03-06T05:31:04.468Z,98170.16
2023-03-06T05:32:08.967Z,98172.86
2023-03-06T05:33:13.468Z,98174.37
2023-03-06T05:34:17.600Z,98168.02
2023-03-06T05:35:21.821Z,98174.37
2023-03-06T05:36:26.137Z,98175.93
2023-03-06T05:37:30.264Z,98173.32
2023-03-06T05:38:34.852Z,98175.75
2023-03-06T05:39:38.977Z,98180.2
2023-03-06T05:40:43.128Z,98176.98
2023-03-06T05:41:47.270Z,98175.86
2023-03-06T05:42:51.461Z,98174.3
2023-03-06T05:43:55.564Z,98177.95
2023-03-06T05:44:59.665Z,98168.27
2023-03-06T05:46:04.223Z,98174.34
2023-03-06T05:47:08.490Z,98166.1
2023-03-06T05:48:12.642Z,98167
2023-03-06T05:49:16.765Z,98167.44
2023-03-06T05:50:20.884Z,98169.19
2023-03-06T05:51:24.986Z,98171.16
2023-03-06T05:52:29.108Z,98162.69
2023-03-06T05:53:33.209Z,98169.04
2023-03-06T05:54:37.348Z,98163.63
2023-03-06T05:55:41.481Z,98172.78
2023-03-06T05:56:45.586Z,98174.75
2023-03-06T05:57:49.728Z,98165.03
2023-03-06T05:58:53.893Z,98169.5
2023-03-06T05:59:57.973Z,98160.86
2023-03-06T06:01:02.092Z,98169.75
2023-03-06T06:02:06.232Z,98170.65
2023-03-06T06:03:10.553Z,98173.73
2023-03-06T06:04:14.734Z,98164.42
2023-03-06T06:05:18.866Z,98167.33
2023-03-06T06:06:22.976Z,98165.89
2023-03-06T06:07:27.090Z,98176.27
2023-03-06T06:08:31.325Z,98161.38
2023-03-06T06:09:35.491Z,98163.47
2023-03-06T06:10:39.627Z,98166.11
2023-03-06T06:11:43.767Z,98167.67
2023-03-06T06:12:47.869Z,98158.27
2023-03-06T06:13:52.035Z,98165.97
2023-03-06T06:14:56.201Z,98164.78
2023-03-06T06:16:00.450Z,98173.72
2023-03-06T06:17:04.627Z,98169.11
2023-03-06T06:18:08.787Z,98166.66
2023-03-06T06:19:12.909Z,98166.28
2023-03-06T06:20:17.037Z,98163.7
2023-03-06T06:21:21.142Z,98172.64
2023-03-06T06:22:25.276Z,98171.52
2023-03-06T06:23:29.377Z,98177.81
2023-03-06T06:24:33.549Z,98171.8
2023-03-06T06:25:37.680Z,98175.56
2023-03-06T06:26:41.813Z,98175.63
2023-03-06T06:27:45.944Z,98179.84
2023-03-06T06:28:50.048Z,98174.33
2023-03-06T06:29:54.175Z,98177.06
2023-03-06T06:30:58.484Z,98181.09
2023-03-06T06:32:02.875Z,98175.16
2023-03-06T06:33:07.042Z,98178.78
2023-03-06T06:34:11.138Z,98181.11
2023-03-06T06:35:15.296Z,98185.66
2023-03-06T06:36:19.424Z,98187.66
2023-03-06T06:37:23.724Z,98175.41
2023-03-06T06:38:27.857Z,98177.38
2023-03-06T06:39:31.972Z,98170.68
2023-03-06T06:40:36.096Z,98170.77
2023-03-06T06:42:15.370Z,98168.62
2023-03-06T06:43:37.741Z,98166.6
2023-03-06T06:44:41.988Z,98169.91
2023-03-06T06:45:46.333Z,98170
2023-03-06T06:47:24.782Z,98164.27
2023-03-06T06:48:29.542Z,98171.98
2023-03-06T06:49:33.661Z,98160.9
2023-03-06T06:50:37.772Z,98160.71
2023-03-06T06:51:42.014Z,98166.66
2023-03-06T06:52:46.181Z,98162.98
2023-03-06T06:53:50.314Z,98168.94
2023-03-06T06:54:54.481Z,98164.52
2023-03-06T06:55:58.618Z,98159
2023-03-06T06:57:02.767Z,98166.35
2023-03-06T06:58:07.057Z,98168.22
2023-03-06T06:59:18.150Z,98165.54
2023-03-06T07:00:22.305Z,98162.14
2023-03-06T07:01:26.511Z,98157.63
2023-03-06T07:02:30.716Z,98151.8
2023-03-06T07:03:34.911Z,98154.86
2023-03-06T07:04:49.226Z,98148.72
2023-03-06T07:06:07.373Z,98150.91
2023-03-06T07:07:11.550Z,98150.78
2023-03-06T07:08:15.662Z,98141.13
2023-03-06T07:09:19.753Z,98149.03
2023-03-06T07:10:23.899Z,98141.62
2023-03-06T07:11:28.058Z,98143.27
2023-03-06T07:12:32.153Z,98150.59
2023-03-06T07:13:36.289Z,98152.73
2023-03-06T07:14:40.378Z,98155.95
2023-03-06T07:15:44.660Z,98151
2023-03-06T07:16:48.830Z,98144.77
2023-03-06T07:17:52.973Z,98152.42
2023-03-06T07:18:57.207Z,98151.12
2023-03-06T07:20:01.344Z,98145.17
2023-03-06T07:21:05.545Z,98149.41
2023-03-06T07:22:09.666Z,98148.19
2023-03-06T07:23:13.809Z,98154.35
2023-03-06T07:24:17.944Z,98155.16
2023-03-06T07:25:22.075Z,98160.11
2023-03-06T07:26:26.175Z,98161.14
2023-03-06T07:27:30.398Z,98160.98
2023-03-06T07:28:52.790Z,98166.22
2023-03-06T07:29:57.208Z,98159.33
2023-03-06T07:31:01.375Z,98165.63
2023-03-06T07:32:05.673Z,98162.97
2023-03-06T07:33:09.871Z,98160.48
2023-03-06T07:34:14.006Z,98165.03
2023-03-06T07:35:30.458Z,98171.72
2023-03-06T07:36:34.775Z,98170.59
2023-03-06T07:37:38.901Z,98165.34
2023-03-06T07:38:43.013Z,98170.28
2023-03-06T07:39:47.144Z,98173.7
2023-03-06T07:40:51.253Z,98167.69
2023-03-06T07:41:55.393Z,98171.68
2023-03-06T07:43:19.272Z,98176.2
2023-03-06T07:44:23.575Z,98173.98
2023-03-06T07:45:27.692Z,98185.91
2023-03-06T07:46:32.039Z,98181.36
2023-03-06T07:47:36.292Z,98179.02
2023-03-06T07:48:40.399Z,98179.17
2023-03-06T07:49:44.504Z,98185.24
2023-03-06T07:50:48.652Z,98174.37
2023-03-06T07:51:52.758Z,98174.89
2023-03-06T07:52:56.903Z,98184.02
2023-03-06T07:54:01.061Z,98192.96
2023-03-06T07:55:05.174Z,98185.95
2023-03-06T07:56:09.482Z,98180.53
2023-03-06T07:57:13.647Z,98184.86
2023-03-06T07:58:17.753Z,98180.94
2023-03-06T07:59:21.850Z,98180.87
2023-03-06T08:00:26.019Z,98182.48
2023-03-06T08:01:30.219Z,98184.73
2023-03-06T08:02:34.370Z,98189.81
2023-03-06T08:03:38.748Z,98176.95
2023-03-06T08:04:42.939Z,98179.13
2023-03-06T08:05:47.121Z,98183.95
2023-03-06T08:06:51.235Z,98172.58
2023-03-06T08:07:55.392Z,98179.13
2023-03-06T08:08:59.531Z,98176.78
2023-03-06T08:10:03.656Z,98180.55
2023-03-06T08:11:07.796Z,98182.95
2023-03-06T08:12:11.920Z,98175.33
2023-03-06T08:13:17.020Z,98172.58
2023-03-06T08:14:21.153Z,98177.69
2023-03-06T08:15:25.333Z,98183.36
2023-03-06T08:16:29.692Z,98182.83
2023-03-06T08:17:33.938Z,98179.03
2023-03-06T08:18:38.086Z,98175.16
2023-03-06T08:19:42.199Z,98165.59
2023-03-06T08:20:46.334Z,98162.18
2023-03-06T08:21:50.476Z,98173.67
2023-03-06T08:22:54.596Z,98167.13
2023-03-06T08:23:58.765Z,98167.66
2023-03-06T08:25:02.903Z,98173.61
2023-03-06T08:26:07.009Z,98173.61
2023-03-06T08:27:11.165Z,98176.16
2023-03-06T08:28:15.301Z,98175.34
2023-03-06T08:29:19.406Z,98162.52
2023-03-06T08:30:23.508Z,98167.94
2023-03-06T08:31:27.822Z,98169.8
2023-03-06T08:32:32.234Z,98171.67
2023-03-06T08:33:36.665Z,98165.81
2023-03-06T08:34:40.822Z,98169
2023-03-06T08:35:44.976Z,98169.52
2023-03-06T08:36:49.272Z,98169.21
2023-03-06T08:37:53.443Z,98170.95
2023-03-06T08:38:57.600Z,98164.28
2023-03-06T08:40:01.733Z,98168.19
2023-03-06T08:41:05.878Z,98172.81
2023-03-06T08:42:10.042Z,98163.19
2023-03-06T08:43:15.325Z,98170.14
2023-03-06T08:44:19.442Z,98169.73
2023-03-06T08:45:23.702Z,98160.8
2023-03-06T08:46:27.939Z,98168.68
2023-03-06T08:47:32.063Z,98166.53
2023-03-06T08:48:36.230Z,98173.03
2023-03-06T08:49:40.398Z,98173.56
2023-03-06T08:50:44.567Z,98169.14
2023-03-06T08:51:48.805Z,98173.16
2023-03-06T08:52:52.961Z,98170.48
2023-03-06T08:53:57.065Z,98175.18
2023-03-06T08:55:01.264Z,98178.7
2023-03-06T08:56:05.376Z,98172.81
2023-03-06T08:57:09.473Z,98171.08
2023-03-06T08:58:13.576Z,98173.22
2023-03-06T08:59:17.697Z,98170.95
2023-03-06T09:00:21.921Z,98167.47
2023-03-06T09:01:26.264Z,98175.18
2023-03-06T09:02:30.496Z,98173.01
2023-03-06T09:03:34.751Z,98178.77
2023-03-06T09:04:38.899Z,98172.61
2023-03-06T09:05:43.080Z,98173.01
2023-03-06T09:06:47.219Z,98178.48
2023-03-06T09:07:51.367Z,98165.79
2023-03-06T09:08:55.526Z,98173.81
2023-03-06T09:09:59.717Z,98167.03
2023-03-06T09:11:03.909Z,98166.11
2023-03-06T09:12:08.013Z,98167.84
2023-03-06T09:13:12.129Z,98172.27
2023-03-06T09:14:16.284Z,98164.98
2023-03-06T09:15:20.410Z,98160.97
2023-03-06T09:16:24.711Z,98169.47
2023-03-06T09:17:29.062Z,98172.05
2023-03-06T09:18:33.346Z,98172.98
2023-03-06T09:19:37.480Z,98168.38
2023-03-06T09:20:41.593Z,98164.45
2023-03-06T09:21:45.750Z,98168.47
2023-03-06T09:22:49.871Z,98165.98
2023-03-06T09:23:54.005Z,98164.43
2023-03-06T09:24:58.111Z,98165.05
2023-03-06T09:26:02.271Z,98167.11
2023-03-06T09:27:06.400Z,98160.34
2023-03-06T09:28:13.050Z,98162.47
2023-03-06T09:29:17.487Z,98164.02
2023-03-06T09:30:21.614Z,98168.76
2023-03-06T09:31:25.725Z,98167.11
2023-03-06T09:32:30.019Z,98167.83
2023-03-06T09:33:34.221Z,98172.24
2023-03-06T09:34:38.358Z,98169.78
2023-03-06T09:35:42.506Z,98170.59
2023-03-06T09:36:57.849Z,98164.11
2023-03-06T09:38:01.999Z,98167.3
2023-03-06T09:39:06.110Z,98169.78
2023-03-06T09:40:10.224Z,98166.36
2023-03-06T09:41:14.368Z,98168.76
2023-03-06T09:42:18.511Z,98158.76
2023-03-06T09:43:22.654Z,98160.73
2023-03-06T09:44:26.769Z,98122.24
2023-03-06T09:45:30.983Z,98166.67
2023-03-06T09:46:35.111Z,98164.62
2023-03-06T09:47:39.234Z,98159.44
2023-03-06T09:48:43.387Z,98154.3
2023-03-06T09:49:47.491Z,98162.06
2023-03-06T09:50:51.617Z,98157.92
2023-03-06T09:51:55.885Z,98162.66
2023-03-06T09:52:59.991Z,98157.3
2023-03-06T09:54:04.123Z,98162.33
2023-03-06T09:55:08.227Z,98155.78
2023-03-06T09:56:12.327Z,98158.4
2023-03-06T09:57:16.437Z,98160.58
2023-03-06T09:58:20.558Z,98160.48
2023-03-06T09:59:24.681Z,98149.9
2023-03-06T10:00:28.845Z,98154.7
2023-03-06T10:01:32.963Z,98153.17
2023-03-06T10:02:37.377Z,98157.71
2023-03-06T10:03:41.763Z,98161.39
2023-03-06T10:04:46.073Z,98156.97
2023-03-06T10:05:50.312Z,98156.78
2023-03-06T10:06:54.439Z,98155.84
2023-03-06T10:07:58.637Z,98123.29
2023-03-06T10:09:02.762Z,98152.77
2023-03-06T10:10:06.911Z,98157.19
2023-03-06T10:11:11.068Z,98153.79
2023-03-06T10:12:15.155Z,98155.41
2023-03-06T10:13:19.314Z,98152.33
2023-03-06T10:14:23.416Z,98150.06
2023-03-06T10:15:27.671Z,98148.53
2023-03-06T10:16:31.921Z,98150.88
2023-03-06T10:17:36.094Z,98148.53
2023-03-06T10:18:40.255Z,98149.66
2023-03-06T10:19:44.400Z,98148.19
2023-03-06T10:20:48.521Z,98150.88
2023-03-06T10:21:52.646Z,98150.25
2023-03-06T10:23:05.322Z,98146.64
2023-03-06T10:24:09.611Z,98140.28
2023-03-06T10:25:13.748Z,98137.08
2023-03-06T10:26:18.135Z,98130.61
2023-03-06T10:27:22.717Z,98144.77
2023-03-06T10:28:26.880Z,98139.42
2023-03-06T10:29:30.991Z,98132.73
2023-03-06T10:30:35.121Z,98126.84
2023-03-06T10:31:39.247Z,98122.17
2023-03-06T10:32:49.931Z,98119.77
2023-03-06T10:33:54.191Z,98128.92
2023-03-06T10:34:58.297Z,98126.16
2023-03-06T10:36:02.493Z,98124.08
2023-03-06T10:37:06.728Z,98123.17
2023-03-06T10:38:10.829Z,98124.55
2023-03-06T10:39:14.967Z,98115.77
2023-03-06T10:40:19.092Z,98118.48
2023-03-06T10:41:23.373Z,98115.09
2023-03-06T10:42:29.852Z,98115.67
2023-03-06T10:43:37.210Z,98110.63
2023-03-06T10:44:41.301Z,98109.89
2023-03-06T10:45:50.190Z,98111.72
2023-03-06T10:46:54.300Z,98106.77
2023-03-06T10:47:58.430Z,98108.58
2023-03-06T10:49:02.807Z,98106.77
2023-03-06T10:50:09.357Z,98106.95
2023-03-06T10:51:19.398Z,98104.64
2023-03-06T10:52:23.560Z,98107.78
2023-03-06T10:53:27.704Z,98101.36
2023-03-06T10:54:31.848Z,98091.62
2023-03-06T10:55:35.983Z,98089.8
2023-03-06T10:56:40.147Z,98097.75
2023-03-06T10:57:44.269Z,98093.51
2023-03-06T10:58:48.391Z,98090.34
2023-03-06T10:59:52.538Z,98085.6
2023-03-06T11:00:56.693Z,98090.64
2023-03-06T11:02:01.006Z,98094.94
2023-03-06T11:03:05.329Z,98086.19
2023-03-06T11:04:09.514Z,98085.85
2023-03-06T11:05:13.658Z,98086.81
2023-03-06T11:06:17.767Z,98086.38
2023-03-06T11:07:21.873Z,98091.86
2023-03-06T11:08:26.084Z,98089.3
2023-03-06T11:09:30.234Z,98085.33
2023-03-06T11:10:34.356Z,98084.45
2023-03-06T11:11:39.158Z,98087.49
2023-03-06T11:12:43.297Z,98074.66
2023-03-06T11:13:47.400Z,98078.5
2023-03-06T11:14:51.482Z,98078.34
2023-03-06T11:15:55.636Z,98075.2
2023-03-06T11:16:59.883Z,98075.09
2023-03-06T11:18:04.020Z,98074.12
2023-03-06T11:19:08.145Z,98064.05
2023-03-06T11:20:12.244Z,98069.61
2023-03-06T11:21:16.361Z,98069.71
2023-03-06T11:22:20.488Z,98071.78
2023-03-06T11:23:24.581Z,98067.59
2023-03-06T11:24:28.703Z,98062.53
2023-03-06T11:25:32.826Z,98058.2
2023-03-06T11:26:37.005Z,98066.47
2023-03-06T11:27:41.115Z,98063.9
2023-03-06T11:28:45.319Z,98059.25
2023-03-06T11:29:49.582Z,98056.25
2023-03-06T11:30:53.766Z,98056.83
2023-03-06T11:31:57.950Z,98051.77
2023-03-06T11:33:02.068Z,98053.34
2023-03-06T11:34:06.174Z,98052.8
2023-03-06T11:35:10.294Z,98036.77
2023-03-06T11:36:14.425Z,98047.08
2023-03-06T11:37:18.537Z,98052.17
2023-03-06T11:38:22.657Z,98044.09
2023-03-06T11:39:26.790Z,98036.54
2023-03-06T11:40:30.891Z,98042.44
2023-03-06T11:41:35.094Z,98048.28
2023-03-06T11:42:39.242Z,98038.82
2023-03-06T11:43:43.338Z,98035.91
2023-03-06T11:44:47.527Z,98040.28
2023-03-06T11:45:51.711Z,98028.72
2023-03-06T11:46:55.873Z,98032.2
2023-03-06T11:48:00.142Z,98034.35
2023-03-06T11:49:04.286Z,98031.19
2023-03-06T11:50:08.402Z,98032.53
2023-03-06T11:51:12.546Z,98022.47
2023-03-06T11:52:16.729Z,98024.49
2023-03-06T11:53:20.882Z,98019.88
2023-03-06T11:54:24.994Z,98015.94
2023-03-06T11:55:29.111Z,98018.67
2023-03-06T11:56:33.226Z,98010.41
2023-03-06T11:57:37.478Z,98010.98
2023-03-06T11:58:41.590Z,98017.2
2023-03-06T11:59:45.718Z,98004.1
2023-03-06T12:00:49.836Z,97999.24
2023-03-06T12:01:54.183Z,98002.05
2023-03-06T12:02:58.370Z,98001.06
2023-03-06T12:04:02.486Z,97994.53
2023-03-06T12:05:06.825Z,98000.48
2023-03-06T12:06:11.133Z,98002.8
2023-03-06T12:07:15.277Z,98001.52
2023-03-06T12:08:19.371Z,97996.73
2023-03-06T12:09:23.516Z,97991.42
2023-03-06T12:10:27.639Z,97992.31
2023-03-06T12:11:34.207Z,97981.72
2023-03-06T12:12:38.325Z,97991.51
2023-03-06T12:13:42.453Z,97985.84
2023-03-06T12:14:46.608Z,97982.66
2023-03-06T12:15:50.769Z,97984.94
2023-03-06T12:16:54.925Z,97980.83
2023-03-06T12:17:59.061Z,97951.78
2023-03-06T12:19:03.252Z,97990.52
2023-03-06T12:20:07.376Z,97989.98
2023-03-06T12:21:11.604Z,97988.78
2023-03-06T12:22:15.702Z,97989.23
2023-03-06T12:23:19.820Z,97983.16
2023-03-06T12:24:23.973Z,97982.17
2023-03-06T12:25:28.088Z,97987.25
2023-03-06T12:26:32.222Z,97983.05
2023-03-06T12:27:36.329Z,97986.36
2023-03-06T12:28:40.432Z,97980.82
2023-03-06T12:29:44.579Z,97979.88
2023-03-06T12:30:48.708Z,97977.52
2023-03-06T12:31:52.984Z,97986.41
2023-03-06T12:32:57.170Z,97982.04
2023-03-06T12:34:01.290Z,97989.09
2023-03-06T12:35:07.137Z,97978.1
2023-03-06T12:36:11.300Z,97990.52
2023-03-06T12:37:15.402Z,97990.92
2023-03-06T12:38:19.528Z,97979.4
2023-03-06T12:39:23.646Z,97980.08
2023-03-06T12:40:27.853Z,97977.58
2023-03-06T12:41:32.084Z,97977.75
2023-03-06T12:42:36.463Z,97978.23
2023-03-06T12:43:41.170Z,97976.77
2023-03-06T12:44:45.317Z,97969.25
2023-03-06T12:45:49.665Z,97980.07
2023-03-06T12:46:53.881Z,97973.09
2023-03-06T12:47:57.987Z,97974.61
2023-03-06T12:49:02.116Z,97976.77
2023-03-06T12:50:06.432Z,97972.74
2023-03-06T12:51:10.572Z,97970.16
2023-03-06T12:52:21.567Z,97976.23
2023-03-06T12:53:33.769Z,97971.05
2023-03-06T12:54:37.932Z,97974.31
2023-03-06T12:55:42.076Z,97967.34
2023-03-06T12:56:46.202Z,97971.28
2023-03-06T12:57:50.328Z,97971.18
2023-03-06T12:58:54.481Z,97970.3
2023-03-06T12:59:58.607Z,97978.87
2023-03-06T13:01:06.094Z,97978.87
2023-03-06T13:02:10.362Z,97973.1
2023-03-06T13:03:14.573Z,97973.73
2023-03-06T13:04:18.703Z,97967.92
2023-03-06T13:05:22.804Z,97975.91
2023-03-06T13:06:27.045Z,97975.83
2023-03-06T13:07:31.149Z,97959.3
2023-03-06T13:08:35.258Z,97965.87
2023-03-06T13:09:39.348Z,97968.95
2023-03-06T13:10:43.478Z,97956.13
2023-03-06T13:11:47.595Z,97964.22
2023-03-06T13:12:51.705Z,97955.85
2023-03-06T13:13:55.843Z,97957.47
2023-03-06T13:15:00.084Z,97956.08
2023-03-06T13:16:04.378Z,97953.68
2023-03-06T13:17:08.518Z,97952.23
2023-03-06T13:18:12.610Z,97954.92
2023-03-06T13:19:16.732Z,97960.16
2023-03-06T13:20:20.858Z,97948.4
2023-03-06T13:21:25.004Z,97958.81
2023-03-06T13:22:29.093Z,97955.73
2023-03-06T13:23:33.235Z,97951.66
2023-03-06T13:24:37.390Z,97953.23
2023-03-06T13:25:41.629Z,97946.98
2023-03-06T13:26:45.919Z,97950.02
2023-03-06T13:27:50.075Z,97938.03
2023-03-06T13:28:54.179Z,97935.75
2023-03-06T13:29:58.336Z,97949.39
2023-03-06T13:31:02.539Z,97937.38
2023-03-06T13:32:06.915Z,97945.23
2023-03-06T13:33:11.066Z,97896.05
2023-03-06T13:34:15.205Z,97951.2
2023-03-06T13:35:19.380Z,97945.41
2023-03-06T13:36:23.522Z,97917.8
2023-03-06T13:37:27.629Z,97936.88
2023-03-06T13:38:31.727Z,97937.86
2023-03-06T13:39:35.830Z,97933.13
2023-03-06T13:40:39.995Z,97941.65
2023-03-06T13:41:44.144Z,97938.97
2023-03-06T13:42:48.240Z,97937.27
2023-03-06T13:43:52.339Z,97936.44
2023-03-06T13:44:56.457Z,97940.18
2023-03-06T13:46:00.711Z,97938.03
2023-03-06T13:47:04.894Z,97940.28
2023-03-06T13:48:44.523Z,97936.44
2023-03-06T13:49:49.486Z,97948.4
2023-03-06T13:50:53.608Z,97947.33
2023-03-06T13:51:57.735Z,97946.7
2023-03-06T13:53:01.842Z,97945.86
2023-03-06T13:54:06.091Z,97953.98
2023-03-06T13:55:10.276Z,97943.84
2023-03-06T13:56:14.394Z,97942.09
2023-03-06T13:57:18.584Z,97950.95
2023-03-06T13:58:22.728Z,97945.23
2023-03-06T13:59:26.865Z,97947.2
2023-03-06T14:00:31.013Z,97950.53
2023-03-06T14:01:35.321Z,97948.89
2023-03-06T14:02:40.022Z,97952.95
2023-03-06T14:03:44.266Z,97954.2
2023-03-06T14:04:48.397Z,97956.88
2023-03-06T14:05:52.513Z,97953.66
2023-03-06T14:06:56.664Z,97957.15
2023-03-06T14:08:00.753Z,97958.09
2023-03-06T14:09:04.904Z,97955
2023-03-06T14:10:09.084Z,97956.52
2023-03-06T14:11:13.219Z,97954.23
2023-03-06T14:12:17.354Z,97958.8
2023-03-06T14:13:21.509Z,97958.39
2023-03-06T14:14:25.627Z,97942.45
2023-03-06T14:15:29.752Z,97949.15
2023-03-06T14:16:50.700Z,97958.61
2023-03-06T14:17:55.052Z,97952.14
2023-03-06T14:18:59.180Z,97957.59
2023-03-06T14:20:03.275Z,97950.56
2023-03-06T14:21:07.401Z,97957.31
2023-03-06T14:22:11.492Z,97952.48
2023-03-06T14:23:15.723Z,97958.75
2023-03-06T14:24:19.888Z,97953.87
2023-03-06T14:25:23.988Z,97961.69
2023-03-06T14:26:28.190Z,97962.12
2023-03-06T14:27:32.324Z,97960.03
2023-03-06T14:28:36.621Z,97960.03
2023-03-06T14:29:40.768Z,97957.48
2023-03-06T14:30:44.935Z,97957.3
2023-03-06T14:31:49.044Z,97958.46
2023-03-06T14:32:53.197Z,97955.11
2023-03-06T14:33:57.343Z,97961.36
2023-03-06T14:35:01.511Z,97953.37
2023-03-06T14:36:07.906Z,97956.94
2023-03-06T14:37:12.284Z,97961.59
2023-03-06T14:38:16.455Z,97960.25
2023-03-06T14:39:20.584Z,97956.27
2023-03-06T14:40:24.729Z,97962.22
2023-03-06T14:41:28.888Z,97958.48
2023-03-06T14:42:33.020Z,97956.53